メインページ
METAR-TAF:

METAR-TAF

空港 :

カンザスシティ, ミズーリ州, アメリカ合衆国

カンザスシティ国際空港

緯度: 39-17-50N, 経度: 094-43-50W, 海抜: 312m

現時点の気象観測

当レポートは25分前の22:53(UTC)に作成
の風 9kt
気温 22°C
湿度 73%
気圧 1010 hPa
視程: 16.1km
高度4100ftの雲は散在している
高度9000ftの千切れ雲あり
高度20000ftの千切れ雲あり

METAR: KMCI 272253Z 01009KT 10SM SCT041 BKN090 BKN200 22/17 A2982 RMK AO2 LTG DSNT SE RAE05B17E26 TSE10 SLP090 P0001 T02220167 $

時間: 18:18 (23:18 UTC)

予報

当レポートは1時間32分前の21:46(UTC)に作成
予報は27日の 22時(UTC)から 28日の 18時(UTC)まで有効
東/北東の風 8kt
視程: 10km
高度10000ftの千切れ雲あり
27日の 22時(UTC)から 27日の 24時(UTC)まで一時的に
高度4000ftの千切れ雲あり, 積乱雲.
激しい雷雨, 小雨
28日の 0400時(UTC)から
の風 7kt
視程: 10km
高度3500ftの曇り
28日の 09時(UTC)から 28日の 13時(UTC)まで一時的に
高度2000ftの曇り

TAF: KMCI 272146Z 2722/2818 07008KT P6SM BKN100 TEMPO 2722/2724 -TSRA BKN040CB FM280400 35007KT P6SM OVC035 TEMPO 2809/2813 OVC020

4,000以上の空港の気象観測と天気予報(METAR報とTAF報)

利用可能な観測所は地図上に黄色い丸と赤い丸で示す。

丸の上にカーソルを重ねると観測所名を参照できる。

次にクリックすると気象観測と天気予報を参照できる。

マップの切り替え:黒色「×」印の緑ボタンをクリックして拡大、「-」印の緑ボタンをクリックして縮小、緑色の三角印をクリックして隣りの地図に切り替え


METAR-TAF: